createdAt,value
2019-01-08T00:00:24.689Z,0.00
2019-01-08T00:01:24.693Z,0.00
2019-01-08T00:02:24.673Z,0.00
2019-01-08T00:03:24.660Z,0.00
2019-01-08T00:04:24.651Z,0.00
2019-01-08T00:05:24.636Z,0.00
2019-01-08T00:06:24.633Z,0.00
2019-01-08T00:07:24.702Z,0.00
2019-01-08T00:08:24.602Z,0.00
2019-01-08T00:09:24.600Z,0.00
2019-01-08T00:10:24.588Z,0.00
2019-01-08T00:11:24.618Z,0.00
2019-01-08T00:12:24.562Z,0.00
2019-01-08T00:13:24.555Z,0.00
2019-01-08T00:14:24.540Z,0.00
2019-01-08T00:15:24.530Z,0.00
2019-01-08T00:16:24.521Z,0.00
2019-01-08T00:17:24.513Z,0.00
2019-01-08T00:18:24.495Z,0.00
2019-01-08T00:19:24.484Z,0.00
2019-01-08T00:20:24.475Z,0.00
2019-01-08T00:21:24.474Z,0.00
2019-01-08T00:22:24.463Z,0.00
2019-01-08T00:23:24.450Z,0.00
2019-01-08T00:24:24.441Z,0.00
2019-01-08T00:25:24.431Z,0.00
2019-01-08T00:26:24.412Z,0.00
2019-01-08T00:27:24.407Z,0.00
2019-01-08T00:28:24.386Z,0.00
2019-01-08T00:29:24.378Z,0.00
2019-01-08T00:30:24.446Z,0.00
2019-01-08T00:31:24.416Z,0.00
2019-01-08T00:32:24.344Z,0.00
2019-01-08T00:33:24.336Z,0.00
2019-01-08T00:34:24.325Z,0.00
2019-01-08T00:35:24.312Z,0.00
2019-01-08T00:36:24.298Z,0.00
2019-01-08T00:37:24.293Z,0.00
2019-01-08T00:38:24.282Z,0.00
2019-01-08T00:39:24.272Z,0.00
2019-01-08T00:40:24.260Z,0.00
2019-01-08T00:41:24.252Z,0.00
2019-01-08T00:42:24.237Z,0.00
2019-01-08T00:43:24.226Z,0.00
2019-01-08T00:44:24.215Z,0.00
2019-01-08T00:45:24.213Z,0.00
2019-01-08T00:46:24.198Z,0.00
2019-01-08T00:47:24.197Z,0.00
2019-01-08T00:48:24.202Z,0.00
2019-01-08T00:49:24.171Z,0.00
2019-01-08T00:50:24.154Z,0.00
2019-01-08T00:51:24.143Z,0.00
2019-01-08T00:52:24.130Z,0.00
2019-01-08T00:53:24.126Z,0.00
2019-01-08T00:54:24.108Z,0.00
2019-01-08T00:55:24.104Z,0.00
2019-01-08T00:56:24.084Z,0.00
2019-01-08T00:57:24.080Z,0.00
2019-01-08T00:58:24.062Z,0.00
2019-01-08T00:59:24.051Z,0.00
2019-01-08T01:00:24.058Z,0.00
2019-01-08T01:01:24.034Z,0.00
2019-01-08T01:02:24.026Z,0.00
2019-01-08T01:03:24.015Z,0.00
2019-01-08T01:04:24.007Z,0.00
2019-01-08T01:05:23.986Z,0.00
2019-01-08T01:06:23.988Z,0.00
2019-01-08T01:07:23.968Z,0.00
2019-01-08T01:08:23.954Z,0.00
2019-01-08T01:09:23.947Z,0.00
2019-01-08T01:10:23.940Z,0.00
2019-01-08T01:11:23.927Z,0.00
2019-01-08T01:12:23.922Z,0.00
2019-01-08T01:13:23.899Z,0.00
2019-01-08T01:14:23.894Z,0.00
2019-01-08T01:15:23.880Z,0.00
2019-01-08T01:16:23.866Z,0.00
2019-01-08T01:17:23.862Z,0.00
2019-01-08T01:18:23.933Z,0.00
2019-01-08T01:19:23.840Z,0.00
2019-01-08T01:20:23.822Z,0.00
2019-01-08T01:21:23.817Z,0.00
2019-01-08T01:22:23.807Z,0.00
2019-01-08T01:23:23.805Z,0.00
2019-01-08T01:24:23.778Z,0.00
2019-01-08T01:25:23.773Z,0.00
2019-01-08T01:26:23.759Z,0.00
2019-01-08T01:27:23.749Z,0.00
2019-01-08T01:28:23.736Z,0.00
2019-01-08T01:29:23.764Z,0.00
2019-01-08T01:30:23.720Z,0.00
2019-01-08T01:31:23.709Z,0.00
2019-01-08T01:32:23.700Z,0.00
2019-01-08T01:33:23.707Z,0.00
2019-01-08T01:34:23.677Z,0.00
2019-01-08T01:35:23.669Z,0.00
2019-01-08T01:36:23.656Z,0.00
2019-01-08T01:37:23.650Z,0.00
2019-01-08T01:38:23.634Z,0.00
2019-01-08T01:39:23.623Z,0.00
2019-01-08T01:40:23.610Z,0.00
2019-01-08T01:41:23.601Z,0.00
2019-01-08T01:42:23.584Z,0.00
2019-01-08T01:43:23.582Z,0.00
2019-01-08T01:44:23.568Z,0.00
2019-01-08T01:45:23.557Z,0.00
2019-01-08T01:46:23.558Z,0.00
2019-01-08T01:47:23.531Z,0.00
2019-01-08T01:48:23.516Z,0.00
2019-01-08T01:49:23.514Z,0.00
2019-01-08T01:50:23.501Z,0.00
2019-01-08T01:51:23.490Z,0.00
2019-01-08T01:52:23.479Z,0.00
2019-01-08T01:53:23.469Z,0.00
2019-01-08T01:54:23.457Z,0.00
2019-01-08T01:55:23.444Z,0.00
2019-01-08T01:56:23.438Z,0.00
2019-01-08T01:57:23.427Z,0.00
2019-01-08T01:58:23.408Z,0.00
2019-01-08T01:59:23.398Z,0.00
2019-01-08T02:00:23.388Z,0.00
2019-01-08T02:01:23.382Z,0.00
2019-01-08T02:02:23.376Z,0.00
2019-01-08T02:03:23.359Z,0.00
2019-01-08T02:04:23.349Z,0.00
2019-01-08T02:05:23.343Z,0.00
2019-01-08T02:06:23.329Z,0.00
2019-01-08T02:07:23.322Z,0.00
2019-01-08T02:08:23.319Z,0.00
2019-01-08T02:09:23.300Z,0.00
2019-01-08T02:10:23.296Z,0.00
2019-01-08T02:11:23.271Z,0.00
2019-01-08T02:12:23.267Z,0.00
2019-01-08T02:13:23.253Z,0.00
2019-01-08T02:14:23.244Z,0.00
2019-01-08T02:15:23.231Z,0.00
2019-01-08T02:16:23.222Z,0.00
2019-01-08T02:17:23.213Z,0.00
2019-01-08T02:18:23.242Z,0.00
2019-01-08T02:19:23.192Z,0.00
2019-01-08T02:20:23.173Z,0.00
2019-01-08T02:21:23.166Z,0.00
2019-01-08T02:22:23.158Z,0.00
2019-01-08T02:23:23.138Z,0.00
2019-01-08T02:24:23.135Z,0.00
2019-01-08T02:25:23.126Z,0.00
2019-01-08T02:26:23.114Z,0.00
2019-01-08T02:27:23.103Z,0.00
2019-01-08T02:28:23.092Z,0.00
2019-01-08T02:29:23.078Z,0.00
2019-01-08T02:30:23.062Z,0.00
2019-01-08T02:31:23.059Z,0.00
2019-01-08T02:32:23.839Z,0.00
2019-01-08T02:33:23.041Z,0.00
2019-01-08T02:34:23.031Z,0.00
2019-01-08T02:35:23.008Z,0.00
2019-01-08T02:36:23.016Z,0.00
2019-01-08T02:37:22.997Z,0.00
2019-01-08T02:38:22.985Z,0.00
2019-01-08T02:39:22.977Z,0.00
2019-01-08T02:40:22.960Z,0.00
2019-01-08T02:41:23.038Z,0.00
2019-01-08T02:42:22.942Z,0.00
2019-01-08T02:43:22.946Z,0.00
2019-01-08T02:44:22.945Z,0.00
2019-01-08T02:45:22.912Z,0.00
2019-01-08T02:46:22.906Z,0.00
2019-01-08T02:47:22.885Z,0.00
2019-01-08T02:48:22.877Z,0.00
2019-01-08T02:49:22.867Z,0.00
2019-01-08T02:50:22.863Z,0.00
2019-01-08T02:51:22.852Z,0.00
2019-01-08T02:52:22.838Z,0.00
2019-01-08T02:53:22.828Z,0.00
2019-01-08T02:54:22.872Z,0.00
2019-01-08T02:55:22.804Z,0.00
2019-01-08T02:56:22.789Z,0.00
2019-01-08T02:57:22.774Z,0.00
2019-01-08T02:58:22.764Z,0.00
2019-01-08T02:59:25.192Z,0.00
2019-01-08T03:00:22.747Z,0.00
2019-01-08T03:01:22.741Z,0.00
2019-01-08T03:02:22.729Z,0.00
2019-01-08T03:03:22.716Z,0.00
2019-01-08T03:04:22.702Z,0.00
2019-01-08T03:05:22.690Z,0.00
2019-01-08T03:06:22.682Z,0.00
2019-01-08T03:07:22.678Z,0.00
2019-01-08T03:08:22.668Z,0.00
2019-01-08T03:09:22.651Z,0.00
2019-01-08T03:10:22.638Z,0.00
2019-01-08T03:11:22.630Z,0.00
2019-01-08T03:12:22.621Z,0.00
2019-01-08T03:13:22.616Z,0.00
2019-01-08T03:14:22.590Z,0.00
2019-01-08T03:15:22.588Z,0.00
2019-01-08T03:16:22.573Z,0.00
2019-01-08T03:17:22.569Z,0.00
2019-01-08T03:18:22.562Z,0.00
2019-01-08T03:19:22.542Z,0.00
2019-01-08T03:20:22.530Z,0.00
2019-01-08T03:21:22.526Z,0.00
2019-01-08T03:22:22.513Z,0.00
2019-01-08T03:23:22.504Z,0.00
2019-01-08T03:24:22.490Z,0.00
2019-01-08T03:25:22.478Z,0.00
2019-01-08T03:26:22.465Z,0.00
2019-01-08T03:27:22.458Z,0.00
2019-01-08T03:28:22.444Z,0.00
2019-01-08T03:29:22.436Z,0.00
2019-01-08T03:30:22.429Z,0.00
2019-01-08T03:31:22.438Z,0.00
2019-01-08T03:32:22.405Z,0.00
2019-01-08T03:33:22.394Z,0.00
2019-01-08T03:34:22.381Z,0.00
2019-01-08T03:35:22.372Z,0.00
2019-01-08T03:36:22.371Z,0.00
2019-01-08T03:37:22.350Z,0.00
2019-01-08T03:38:22.337Z,0.00
2019-01-08T03:39:22.330Z,0.00
2019-01-08T03:40:22.314Z,0.00
2019-01-08T03:41:22.306Z,0.00
2019-01-08T03:42:22.302Z,0.00
2019-01-08T03:43:22.290Z,0.00
2019-01-08T03:44:22.290Z,0.00
2019-01-08T03:45:22.265Z,0.00
2019-01-08T03:46:22.253Z,0.00
2019-01-08T03:47:22.246Z,0.00
2019-01-08T03:48:22.230Z,0.00
2019-01-08T03:49:22.220Z,0.00
2019-01-08T03:50:22.210Z,0.00
2019-01-08T03:51:22.205Z,0.00
2019-01-08T03:52:22.198Z,0.00
2019-01-08T03:53:22.180Z,0.00
2019-01-08T03:54:22.194Z,0.00
2019-01-08T03:55:22.160Z,0.00
2019-01-08T03:56:22.153Z,0.00
2019-01-08T03:57:22.134Z,0.00
2019-01-08T03:58:22.129Z,0.00
2019-01-08T03:59:22.123Z,0.00
2019-01-08T04:00:22.110Z,0.00
2019-01-08T04:01:22.100Z,0.00
2019-01-08T04:02:22.090Z,0.00
2019-01-08T04:03:22.072Z,0.00
2019-01-08T04:04:22.062Z,0.00
2019-01-08T04:05:22.063Z,0.00
2019-01-08T04:06:22.053Z,0.00
2019-01-08T04:07:22.035Z,0.00
2019-01-08T04:08:22.023Z,0.00
2019-01-08T04:09:22.014Z,0.00
2019-01-08T04:10:22.006Z,0.00
2019-01-08T04:11:21.987Z,0.00
2019-01-08T04:12:21.986Z,0.00
2019-01-08T04:13:21.962Z,0.00
2019-01-08T04:14:21.954Z,0.00
2019-01-08T04:15:21.947Z,0.00
2019-01-08T04:16:21.934Z,0.00
2019-01-08T04:17:21.924Z,0.00
2019-01-08T04:18:21.926Z,0.00
2019-01-08T04:19:21.908Z,0.00
2019-01-08T04:20:21.904Z,0.00
2019-01-08T04:21:21.885Z,0.00
2019-01-08T04:22:21.875Z,0.00
2019-01-08T04:23:21.871Z,0.00
2019-01-08T04:24:21.855Z,0.00
2019-01-08T04:25:21.845Z,0.00
2019-01-08T04:26:21.831Z,0.00
2019-01-08T04:27:21.814Z,0.00
2019-01-08T04:28:21.817Z,0.00
2019-01-08T04:29:21.803Z,0.00
2019-01-08T04:30:21.808Z,0.00
2019-01-08T04:31:21.778Z,0.00
2019-01-08T04:32:21.770Z,0.00
2019-01-08T04:33:21.756Z,0.00
2019-01-08T04:34:21.753Z,0.00
2019-01-08T04:35:21.729Z,0.00
2019-01-08T04:36:21.724Z,0.00
2019-01-08T04:37:21.708Z,0.00
2019-01-08T04:38:21.697Z,0.00
2019-01-08T04:39:21.694Z,0.00
2019-01-08T04:40:21.683Z,0.00
2019-01-08T04:41:21.670Z,0.00
2019-01-08T04:42:21.745Z,0.00
2019-01-08T04:43:21.657Z,0.00
2019-01-08T04:44:21.634Z,0.00
2019-01-08T04:45:21.626Z,0.00
2019-01-08T04:46:21.618Z,0.00
2019-01-08T04:47:21.604Z,0.00
2019-01-08T04:48:21.592Z,0.00
2019-01-08T04:49:21.586Z,0.00
2019-01-08T04:50:21.570Z,0.00
2019-01-08T04:51:21.560Z,0.00
2019-01-08T04:52:21.547Z,0.00
2019-01-08T04:53:21.567Z,0.00
2019-01-08T04:54:21.536Z,0.00
2019-01-08T04:55:21.524Z,0.00
2019-01-08T04:56:21.511Z,0.00
2019-01-08T04:57:21.500Z,0.00
2019-01-08T04:58:21.483Z,0.00
2019-01-08T04:59:21.473Z,0.00
2019-01-08T05:00:21.462Z,0.00
2019-01-08T05:01:21.450Z,0.00
2019-01-08T05:02:21.450Z,0.00
2019-01-08T05:03:21.432Z,0.00
2019-01-08T05:04:21.419Z,0.00
2019-01-08T05:05:21.408Z,0.00
2019-01-08T05:06:21.416Z,0.00
2019-01-08T05:07:21.384Z,0.00
2019-01-08T05:08:21.380Z,0.00
2019-01-08T05:09:21.372Z,0.00
2019-01-08T05:10:21.353Z,0.00
2019-01-08T05:11:21.344Z,0.00
2019-01-08T05:12:21.328Z,0.00
2019-01-08T05:13:21.327Z,0.00
2019-01-08T05:14:21.305Z,0.00
2019-01-08T05:15:21.300Z,0.00
2019-01-08T05:16:21.308Z,0.00
2019-01-08T05:17:21.282Z,0.00
2019-01-08T05:18:21.275Z,0.00
2019-01-08T05:19:21.258Z,0.00
2019-01-08T05:20:21.252Z,0.00
2019-01-08T05:21:21.238Z,0.00
2019-01-08T05:22:21.233Z,0.00
2019-01-08T05:23:21.214Z,0.00
2019-01-08T05:24:21.206Z,0.00
2019-01-08T05:25:21.193Z,0.00
2019-01-08T05:26:21.185Z,0.00
2019-01-08T05:27:21.169Z,0.00
2019-01-08T05:28:21.166Z,0.00
2019-01-08T05:29:21.163Z,0.00
2019-01-08T05:30:21.146Z,0.00
2019-01-08T05:31:21.129Z,0.00
2019-01-08T05:32:21.114Z,0.00
2019-01-08T05:33:21.105Z,0.00
2019-01-08T05:34:21.093Z,0.00
2019-01-08T05:35:21.088Z,0.00
2019-01-08T05:36:21.080Z,0.00
2019-01-08T05:37:21.057Z,0.00
2019-01-08T05:38:21.060Z,0.00
2019-01-08T05:39:21.041Z,0.00
2019-01-08T05:40:21.036Z,0.00
2019-01-08T05:41:21.024Z,0.00
2019-01-08T05:42:21.018Z,0.00
2019-01-08T05:43:21.000Z,0.00
2019-01-08T05:44:20.987Z,0.00
2019-01-08T05:45:20.980Z,0.00
2019-01-08T05:46:20.972Z,0.00
2019-01-08T05:47:20.952Z,0.00
2019-01-08T05:48:20.948Z,0.00
2019-01-08T05:49:20.936Z,0.00
2019-01-08T05:50:20.920Z,0.00
2019-01-08T05:51:20.916Z,0.00
2019-01-08T05:52:20.922Z,0.00
2019-01-08T05:53:20.895Z,0.00
2019-01-08T05:54:20.886Z,0.00
2019-01-08T05:55:20.864Z,0.00
2019-01-08T05:56:20.854Z,0.00
2019-01-08T05:57:20.842Z,0.00
2019-01-08T05:58:20.851Z,0.00
2019-01-08T05:59:20.830Z,0.00
2019-01-08T06:00:20.810Z,0.00
2019-01-08T06:01:20.798Z,0.00
2019-01-08T06:02:20.797Z,0.00
2019-01-08T06:03:20.787Z,0.00
2019-01-08T06:04:20.764Z,0.00
2019-01-08T06:05:20.752Z,0.00
2019-01-08T06:06:20.748Z,0.00
2019-01-08T06:07:20.732Z,0.00
2019-01-08T06:08:20.729Z,0.00
2019-01-08T06:09:20.718Z,0.00
2019-01-08T06:10:20.698Z,0.00
2019-01-08T06:11:20.688Z,0.00
2019-01-08T06:12:20.685Z,0.00
2019-01-08T06:13:20.668Z,0.00
2019-01-08T06:14:20.652Z,0.00
2019-01-08T06:15:20.664Z,0.00
2019-01-08T06:16:20.636Z,0.00
2019-01-08T06:17:20.631Z,0.00
2019-01-08T06:18:20.612Z,0.00
2019-01-08T06:19:20.609Z,0.00
2019-01-08T06:20:20.594Z,0.00
2019-01-08T06:21:20.586Z,0.00
2019-01-08T06:22:20.574Z,0.00
2019-01-08T06:23:20.568Z,0.00
2019-01-08T06:24:20.552Z,0.00
2019-01-08T06:25:20.539Z,0.00
2019-01-08T06:26:20.528Z,0.00
2019-01-08T06:27:20.524Z,0.00
2019-01-08T06:28:20.528Z,0.00
2019-01-08T06:29:20.558Z,0.00
2019-01-08T06:30:24.708Z,0.00
2019-01-08T06:31:20.476Z,0.00
2019-01-08T06:32:20.469Z,0.00
2019-01-08T06:33:20.454Z,0.00
2019-01-08T06:34:20.454Z,0.00
2019-01-08T06:35:20.433Z,0.00
2019-01-08T06:36:20.426Z,0.00
2019-01-08T06:37:20.413Z,0.00
2019-01-08T06:38:20.406Z,0.00
2019-01-08T06:39:20.388Z,0.00
2019-01-08T06:40:20.380Z,4.00
2019-01-08T06:41:20.371Z,4.00
2019-01-08T06:42:20.356Z,4.00
2019-01-08T06:43:20.346Z,4.00
2019-01-08T06:44:20.335Z,4.00
2019-01-08T06:45:20.338Z,0.00
2019-01-08T06:46:20.322Z,0.00
2019-01-08T06:47:20.311Z,0.00
2019-01-08T06:48:20.288Z,0.00
2019-01-08T06:49:20.283Z,0.00
2019-01-08T06:50:20.275Z,4.00
2019-01-08T06:51:20.267Z,4.00
2019-01-08T06:52:20.258Z,4.00
2019-01-08T06:53:20.236Z,4.00
2019-01-08T06:54:20.226Z,4.00
2019-01-08T06:55:20.210Z,0.00
2019-01-08T06:56:20.210Z,4.00
2019-01-08T06:57:20.200Z,4.00
2019-01-08T06:58:20.181Z,4.00
2019-01-08T06:59:20.172Z,4.00
2019-01-08T07:00:20.170Z,8.00
2019-01-08T07:01:20.172Z,12.00
2019-01-08T07:02:20.142Z,16.00
2019-01-08T07:03:20.125Z,20.00
2019-01-08T07:04:20.120Z,24.00
2019-01-08T07:05:20.118Z,28.00
2019-01-08T07:06:20.100Z,24.00
2019-01-08T07:07:20.092Z,24.00
2019-01-08T07:08:20.078Z,24.00
2019-01-08T07:09:20.066Z,24.00
2019-01-08T07:10:20.054Z,28.00
2019-01-08T07:11:20.044Z,36.00
2019-01-08T07:12:20.036Z,44.00
2019-01-08T07:13:20.032Z,44.00
2019-01-08T07:14:20.013Z,44.00
2019-01-08T07:15:20.004Z,44.00
2019-01-08T07:16:19.991Z,48.00
2019-01-08T07:17:19.985Z,56.00
2019-01-08T07:18:19.968Z,80.00
2019-01-08T07:19:19.956Z,96.00
2019-01-08T07:20:19.951Z,80.00
2019-01-08T07:21:19.942Z,64.00
2019-01-08T07:22:19.932Z,48.00
2019-01-08T07:23:19.914Z,40.00
2019-01-08T07:24:19.906Z,36.00
2019-01-08T07:25:19.894Z,44.00
2019-01-08T07:26:19.884Z,72.00
2019-01-08T07:27:19.880Z,68.00
2019-01-08T07:28:19.858Z,68.00
2019-01-08T07:29:19.905Z,64.00
2019-01-08T07:30:19.845Z,64.00
2019-01-08T07:31:19.824Z,60.00
2019-01-08T07:32:19.822Z,64.00
2019-01-08T07:33:19.815Z,72.00
2019-01-08T07:34:19.800Z,80.00
2019-01-08T07:35:19.788Z,92.00
2019-01-08T07:36:19.799Z,108.00
2019-01-08T07:37:19.770Z,144.00
2019-01-08T07:38:19.753Z,152.00
2019-01-08T07:39:19.744Z,124.00
2019-01-08T07:40:19.730Z,132.00
2019-01-08T07:41:19.721Z,140.00
2019-01-08T07:42:19.710Z,176.00
2019-01-08T07:43:19.698Z,200.00
2019-01-08T07:44:19.688Z,200.00
2019-01-08T07:45:19.677Z,168.00
2019-01-08T07:46:19.666Z,200.00
2019-01-08T07:47:19.655Z,252.00
2019-01-08T07:48:19.642Z,308.00
2019-01-08T07:49:19.654Z,284.00
2019-01-08T07:50:19.622Z,272.00
2019-01-08T07:51:19.614Z,332.00
2019-01-08T07:52:19.602Z,332.00
2019-01-08T07:53:19.588Z,368.00
2019-01-08T07:54:19.584Z,384.00
2019-01-08T07:55:19.566Z,384.00
2019-01-08T07:56:19.562Z,360.00
2019-01-08T07:57:19.548Z,308.00
2019-01-08T07:58:19.541Z,296.00
2019-01-08T07:59:19.531Z,300.00
2019-01-08T08:00:19.520Z,280.00
2019-01-08T08:01:19.505Z,248.00
2019-01-08T08:02:19.494Z,216.00
2019-01-08T08:03:19.490Z,188.00
2019-01-08T08:04:19.477Z,160.00
2019-01-08T08:05:19.466Z,152.00
2019-01-08T08:06:19.449Z,148.00
2019-01-08T08:07:19.447Z,152.00
2019-01-08T08:08:19.436Z,152.00
2019-01-08T08:09:19.418Z,168.00
2019-01-08T08:10:19.408Z,172.00
2019-01-08T08:11:19.398Z,164.00
2019-01-08T08:12:19.395Z,160.00
2019-01-08T08:13:19.376Z,156.00
2019-01-08T08:14:19.370Z,156.00
2019-01-08T08:15:19.360Z,152.00
2019-01-08T08:16:19.346Z,160.00
2019-01-08T08:17:19.336Z,180.00
2019-01-08T08:18:19.324Z,164.00
2019-01-08T08:19:19.315Z,176.00
2019-01-08T08:20:19.303Z,140.00
2019-01-08T08:21:19.296Z,152.00
2019-01-08T08:22:19.284Z,156.00
2019-01-08T08:23:19.272Z,168.00
2019-01-08T08:24:19.263Z,160.00
2019-01-08T08:25:19.250Z,144.00
2019-01-08T08:26:19.247Z,152.00
2019-01-08T08:27:19.232Z,160.00
2019-01-08T08:28:19.238Z,160.00
2019-01-08T08:29:19.210Z,164.00
2019-01-08T08:30:19.205Z,156.00
2019-01-08T08:31:19.185Z,156.00
2019-01-08T08:32:19.176Z,184.00
2019-01-08T08:33:19.175Z,248.00
2019-01-08T08:34:19.158Z,308.00
2019-01-08T08:35:19.166Z,332.00
2019-01-08T08:36:19.142Z,336.00
2019-01-08T08:37:19.120Z,384.00
2019-01-08T08:38:19.108Z,504.00
2019-01-08T08:39:19.102Z,572.00
2019-01-08T08:40:19.086Z,668.00
2019-01-08T08:41:19.082Z,740.00
2019-01-08T08:42:19.104Z,792.00
2019-01-08T08:43:19.056Z,856.00
2019-01-08T08:44:19.044Z,920.00
2019-01-08T08:45:19.060Z,1100.00
2019-01-08T08:46:19.028Z,1080.00
2019-01-08T08:47:19.023Z,1140.00
2019-01-08T08:48:19.007Z,1244.00
2019-01-08T08:49:18.988Z,1228.00
2019-01-08T08:50:18.984Z,1100.00
2019-01-08T08:51:18.977Z,932.00
2019-01-08T08:52:18.972Z,776.00
2019-01-08T08:53:18.951Z,588.00
2019-01-08T08:54:18.942Z,488.00
2019-01-08T08:55:18.933Z,496.00
2019-01-08T08:56:18.926Z,424.00
2019-01-08T08:57:18.928Z,464.00
2019-01-08T08:58:18.917Z,528.00
2019-01-08T08:59:18.892Z,460.00
2019-01-08T09:00:18.877Z,428.00
2019-01-08T09:01:18.866Z,360.00
2019-01-08T09:02:18.860Z,352.00
2019-01-08T09:03:18.846Z,312.00
2019-01-08T09:04:18.833Z,316.00
2019-01-08T09:05:18.824Z,412.00
2019-01-08T09:06:18.821Z,412.00
2019-01-08T09:07:20.153Z,504.00
2019-01-08T09:08:18.795Z,680.00
2019-01-08T09:09:18.785Z,860.00
2019-01-08T09:10:18.768Z,1092.00
2019-01-08T09:11:18.766Z,1184.00
2019-01-08T09:12:18.752Z,1328.00
2019-01-08T09:13:18.740Z,1508.00
2019-01-08T09:14:18.732Z,1560.00
2019-01-08T09:15:18.718Z,1500.00
2019-01-08T09:16:18.707Z,1300.00
2019-01-08T09:17:18.698Z,1140.00
2019-01-08T09:18:18.688Z,1028.00
2019-01-08T09:19:18.674Z,896.00
2019-01-08T09:20:18.666Z,760.00
2019-01-08T09:21:18.666Z,640.00
2019-01-08T09:22:18.644Z,488.00
2019-01-08T09:23:18.636Z,436.00
2019-01-08T09:24:18.626Z,356.00
2019-01-08T09:25:18.610Z,264.00
2019-01-08T09:26:18.602Z,228.00
2019-01-08T09:27:18.594Z,212.00
2019-01-08T09:28:18.580Z,208.00
2019-01-08T09:29:18.567Z,208.00
2019-01-08T09:30:18.558Z,244.00
2019-01-08T09:31:18.548Z,276.00
2019-01-08T09:32:18.546Z,300.00
2019-01-08T09:33:18.528Z,360.00
2019-01-08T09:34:18.528Z,416.00
2019-01-08T09:35:18.513Z,456.00
2019-01-08T09:36:18.496Z,436.00
2019-01-08T09:37:18.481Z,424.00
2019-01-08T09:38:18.476Z,320.00
2019-01-08T09:39:18.470Z,292.00
2019-01-08T09:40:18.450Z,280.00
2019-01-08T09:41:18.448Z,284.00
2019-01-08T09:42:18.434Z,328.00
2019-01-08T09:43:18.426Z,336.00
2019-01-08T09:44:18.415Z,384.00
2019-01-08T09:45:18.392Z,340.00
2019-01-08T09:46:18.384Z,332.00
2019-01-08T09:47:18.386Z,340.00
2019-01-08T09:48:18.372Z,392.00
2019-01-08T09:49:18.359Z,400.00
2019-01-08T09:50:18.352Z,400.00
2019-01-08T09:51:18.334Z,440.00
2019-01-08T09:52:18.328Z,464.00
2019-01-08T09:53:18.312Z,480.00
2019-01-08T09:54:18.305Z,452.00
2019-01-08T09:55:18.290Z,388.00
2019-01-08T09:56:18.285Z,364.00
2019-01-08T09:57:18.283Z,364.00
2019-01-08T09:58:18.262Z,332.00
2019-01-08T09:59:18.257Z,344.00
2019-01-08T10:00:18.241Z,340.00
2019-01-08T10:01:23.936Z,356.00
2019-01-08T10:02:19.213Z,400.00
2019-01-08T10:03:18.207Z,348.00
2019-01-08T10:04:18.198Z,344.00
2019-01-08T10:05:18.182Z,428.00
2019-01-08T10:06:18.176Z,440.00
2019-01-08T10:07:18.169Z,440.00
2019-01-08T10:08:18.155Z,420.00
2019-01-08T10:09:18.146Z,376.00
2019-01-08T10:10:18.151Z,460.00
2019-01-08T10:11:18.125Z,524.00
2019-01-08T10:12:18.110Z,500.00
2019-01-08T10:13:18.102Z,516.00
2019-01-08T10:14:18.084Z,532.00
2019-01-08T10:15:18.086Z,756.00
2019-01-08T10:16:18.072Z,852.00
2019-01-08T10:17:18.063Z,768.00
2019-01-08T10:18:18.048Z,732.00
2019-01-08T10:19:18.040Z,632.00
2019-01-08T10:20:18.046Z,636.00
2019-01-08T10:21:18.015Z,648.00
2019-01-08T10:22:18.012Z,652.00
2019-01-08T10:23:17.999Z,620.00
2019-01-08T10:24:17.980Z,640.00
2019-01-08T10:25:17.971Z,768.00
2019-01-08T10:26:17.963Z,696.00
2019-01-08T10:27:17.950Z,716.00
2019-01-08T10:28:17.952Z,628.00
2019-01-08T10:29:17.928Z,644.00
2019-01-08T10:30:17.920Z,720.00
2019-01-08T10:31:17.906Z,716.00
2019-01-08T10:32:17.896Z,696.00
2019-01-08T10:33:17.884Z,736.00
2019-01-08T10:34:17.874Z,684.00
2019-01-08T10:35:17.873Z,752.00
2019-01-08T10:36:17.850Z,816.00
2019-01-08T10:37:17.850Z,752.00
2019-01-08T10:38:17.830Z,668.00
2019-01-08T10:39:17.820Z,628.00
2019-01-08T10:40:17.812Z,780.00
2019-01-08T10:41:17.801Z,828.00
2019-01-08T10:42:17.784Z,872.00
2019-01-08T10:43:17.801Z,932.00
2019-01-08T10:44:17.769Z,876.00
2019-01-08T10:45:17.763Z,876.00
2019-01-08T10:46:17.749Z,888.00
2019-01-08T10:47:17.736Z,1008.00
2019-01-08T10:48:17.722Z,1064.00
2019-01-08T10:49:17.713Z,1096.00
2019-01-08T10:50:17.701Z,1092.00
2019-01-08T10:51:17.694Z,936.00
2019-01-08T10:52:17.685Z,1096.00
2019-01-08T10:53:17.671Z,1188.00
2019-01-08T10:54:17.659Z,1020.00
2019-01-08T10:55:17.649Z,1112.00
2019-01-08T10:56:17.659Z,1048.00
2019-01-08T10:57:17.635Z,1000.00
2019-01-08T10:58:17.618Z,948.00
2019-01-08T10:59:17.603Z,768.00
2019-01-08T11:00:17.598Z,760.00
2019-01-08T11:01:17.585Z,736.00
2019-01-08T11:02:17.574Z,672.00
2019-01-08T11:03:17.561Z,728.00
2019-01-08T11:04:17.550Z,696.00
2019-01-08T11:05:17.542Z,628.00
2019-01-08T11:06:17.528Z,572.00
2019-01-08T11:07:17.527Z,524.00
2019-01-08T11:08:17.504Z,552.00
2019-01-08T11:09:17.510Z,500.00
2019-01-08T11:10:17.484Z,460.00
2019-01-08T11:11:17.477Z,528.00
2019-01-08T11:12:17.466Z,604.00
2019-01-08T11:13:17.452Z,748.00
2019-01-08T11:14:17.442Z,928.00
2019-01-08T11:15:17.438Z,1036.00
2019-01-08T11:16:17.418Z,836.00
2019-01-08T11:17:17.411Z,828.00
2019-01-08T11:18:17.402Z,748.00
2019-01-08T11:19:17.418Z,692.00
2019-01-08T11:20:17.389Z,716.00
2019-01-08T11:21:17.371Z,576.00
2019-01-08T11:22:17.356Z,492.00
2019-01-08T11:23:17.405Z,488.00
2019-01-08T11:24:17.337Z,568.00
2019-01-08T11:25:17.327Z,536.00
2019-01-08T11:26:17.314Z,480.00
2019-01-08T11:27:17.308Z,584.00
2019-01-08T11:28:17.292Z,596.00
2019-01-08T11:29:17.278Z,612.00
2019-01-08T11:30:17.274Z,512.00
2019-01-08T11:31:17.259Z,544.00
2019-01-08T11:32:17.248Z,536.00
2019-01-08T11:33:17.244Z,552.00
2019-01-08T11:34:17.226Z,608.00
2019-01-08T11:35:17.218Z,744.00
2019-01-08T11:36:17.214Z,836.00
2019-01-08T11:37:17.202Z,896.00
2019-01-08T11:38:17.183Z,980.00
2019-01-08T11:39:17.175Z,1076.00
2019-01-08T11:40:17.559Z,1032.00
2019-01-08T11:41:17.150Z,1060.00
2019-01-08T11:42:17.138Z,776.00
2019-01-08T11:43:17.132Z,744.00
2019-01-08T11:44:17.122Z,768.00
2019-01-08T11:45:17.117Z,704.00
2019-01-08T11:46:17.118Z,692.00
2019-01-08T11:47:17.088Z,780.00
2019-01-08T11:48:17.074Z,856.00
2019-01-08T11:49:17.074Z,744.00
2019-01-08T11:50:17.054Z,708.00
2019-01-08T11:51:17.062Z,756.00
2019-01-08T11:52:17.040Z,652.00
2019-01-08T11:53:17.022Z,616.00
2019-01-08T11:54:17.014Z,632.00
2019-01-08T11:55:17.019Z,816.00
2019-01-08T11:56:17.005Z,724.00
2019-01-08T11:57:16.975Z,620.00
2019-01-08T11:58:16.964Z,540.00
2019-01-08T11:59:16.955Z,512.00
2019-01-08T12:00:16.949Z,464.00
2019-01-08T12:01:16.938Z,472.00
2019-01-08T12:02:16.929Z,492.00
2019-01-08T12:03:16.921Z,564.00
2019-01-08T12:04:16.904Z,584.00
2019-01-08T12:05:16.889Z,576.00
2019-01-08T12:06:16.880Z,652.00
2019-01-08T12:07:18.703Z,740.00
2019-01-08T12:08:16.862Z,920.00
2019-01-08T12:09:16.849Z,912.00
2019-01-08T12:10:16.838Z,940.00
2019-01-08T12:11:16.833Z,1092.00
2019-01-08T12:12:16.818Z,1180.00
2019-01-08T12:13:16.807Z,1028.00
2019-01-08T12:14:16.805Z,1040.00
2019-01-08T12:15:16.785Z,1036.00
2019-01-08T12:16:16.776Z,1096.00
2019-01-08T12:17:16.762Z,1172.00
2019-01-08T12:18:16.782Z,1052.00
2019-01-08T12:19:16.744Z,1292.00
2019-01-08T12:20:16.735Z,1260.00
2019-01-08T12:21:16.717Z,1048.00
2019-01-08T12:22:16.706Z,1092.00
2019-01-08T12:23:16.701Z,1240.00
2019-01-08T12:24:16.685Z,1368.00
2019-01-08T12:25:16.681Z,1280.00
2019-01-08T12:26:16.670Z,1208.00
2019-01-08T12:27:16.668Z,1192.00
2019-01-08T12:28:16.638Z,944.00
2019-01-08T12:29:16.638Z,860.00
2019-01-08T12:30:16.624Z,840.00
2019-01-08T12:31:16.625Z,868.00
2019-01-08T12:32:16.608Z,832.00
2019-01-08T12:33:16.592Z,868.00
2019-01-08T12:34:16.580Z,816.00
2019-01-08T12:35:16.580Z,820.00
2019-01-08T12:36:16.563Z,756.00
2019-01-08T12:37:16.559Z,580.00
2019-01-08T12:38:16.543Z,824.00
2019-01-08T12:39:16.526Z,752.00
2019-01-08T12:40:16.518Z,600.00
2019-01-08T12:41:16.528Z,516.00
2019-01-08T12:42:16.497Z,440.00
2019-01-08T12:43:16.479Z,376.00
2019-01-08T12:44:16.476Z,376.00
2019-01-08T12:45:16.471Z,356.00
2019-01-08T12:46:16.460Z,352.00
2019-01-08T12:47:16.445Z,284.00
2019-01-08T12:48:16.439Z,364.00
2019-01-08T12:49:16.419Z,540.00
2019-01-08T12:50:16.409Z,484.00
2019-01-08T12:51:16.398Z,488.00
2019-01-08T12:52:16.404Z,388.00
2019-01-08T12:53:16.379Z,336.00
2019-01-08T12:54:16.375Z,372.00